createdAt,value
2022-09-02T07:10:04.810Z,969.89
2022-09-02T07:11:04.828Z,969.88
2022-09-02T07:12:05.623Z,969.89
2022-09-02T07:13:04.931Z,969.91
2022-09-02T07:14:04.987Z,969.92
2022-09-02T07:15:05.053Z,969.91
2022-09-02T07:16:05.081Z,969.94
2022-09-02T07:17:05.236Z,969.93
2022-09-02T07:18:05.184Z,969.95
2022-09-02T07:19:09.910Z,969.93
2022-09-02T07:20:05.288Z,969.97
2022-09-02T07:21:05.426Z,969.98
2022-09-02T07:22:05.412Z,969.98
2022-09-02T07:23:05.456Z,969.98
2022-09-02T07:24:05.525Z,969.97
2022-09-02T07:25:05.550Z,969.97
2022-09-02T07:26:05.603Z,969.98
2022-09-02T07:27:05.682Z,969.95
2022-09-02T07:28:05.719Z,969.99
2022-09-02T07:29:05.762Z,970.00
2022-09-02T07:30:05.820Z,970.01
2022-09-02T07:31:05.920Z,970.06
2022-09-02T07:32:05.923Z,970.04
2022-09-02T07:33:05.981Z,970.06
2022-09-02T07:34:06.024Z,970.06
2022-09-02T07:35:06.107Z,970.04
2022-09-02T07:36:06.136Z,970.07
2022-09-02T07:37:10.430Z,970.04
2022-09-02T07:38:06.240Z,970.04
2022-09-02T07:39:06.295Z,970.08
2022-09-02T07:40:06.442Z,970.08
2022-09-02T07:41:06.401Z,970.09
2022-09-02T07:42:07.555Z,970.01
2022-09-02T07:43:06.510Z,970.04
2022-09-02T07:44:06.568Z,970.03
2022-09-02T07:45:06.648Z,970.03
2022-09-02T07:46:06.702Z,970.04
2022-09-02T07:47:06.729Z,970.02
2022-09-02T07:48:06.784Z,970.02
2022-09-02T07:49:09.147Z,970.00
2022-09-02T07:50:22.254Z,970.01
2022-09-02T07:51:06.966Z,970.01
2022-09-02T07:52:07.004Z,970.00
2022-09-02T07:53:07.056Z,969.98
2022-09-02T07:54:07.126Z,970.01
2022-09-02T07:55:10.259Z,969.95
2022-09-02T07:56:07.223Z,969.96
2022-09-02T07:57:07.311Z,969.97
2022-09-02T07:58:07.336Z,969.97
2022-09-02T07:59:07.382Z,970.01
2022-09-02T08:00:07.491Z,969.99
2022-09-02T08:01:07.562Z,970.00
2022-09-02T08:02:07.590Z,969.99
2022-09-02T08:04:07.683Z,969.98
2022-09-02T08:05:07.715Z,969.98
2022-09-02T08:06:07.771Z,970.00
2022-09-02T08:07:07.850Z,970.01
2022-09-02T08:08:07.880Z,970.01
2022-09-02T08:09:07.951Z,970.01
2022-09-02T08:10:08.091Z,970.00
2022-09-02T08:11:08.047Z,970.00
2022-09-02T08:12:08.128Z,969.99
2022-09-02T08:13:08.154Z,969.98
2022-09-02T08:14:09.714Z,969.96
2022-09-02T09:10:37.882Z,969.78
2022-09-02T09:11:37.901Z,969.77
2022-09-02T09:12:37.978Z,969.78
2022-09-02T09:13:41.292Z,969.78
2022-09-02T09:14:38.057Z,969.76
2022-09-02T09:15:38.109Z,969.75
2022-09-02T09:16:38.228Z,969.80
2022-09-02T09:17:38.214Z,969.79
2022-09-02T09:18:38.302Z,969.78
2022-09-02T09:19:38.326Z,969.77
2022-09-02T09:20:38.373Z,969.79
2022-09-02T09:21:38.426Z,969.79
2022-09-02T09:22:38.506Z,969.82
2022-09-02T09:23:38.531Z,969.84
2022-09-02T09:24:38.609Z,969.79
2022-09-02T09:25:38.637Z,969.83
2022-09-02T09:26:38.690Z,969.80
2022-09-02T09:35:56.563Z,969.70
2022-09-02T09:36:29.563Z,969.73
2022-09-02T09:50:16.842Z,969.61
2022-09-02T09:51:16.794Z,969.61
2022-09-02T09:52:16.842Z,969.59
2022-09-02T09:53:16.909Z,969.65
2022-09-02T09:54:16.984Z,969.62
2022-09-02T09:55:22.770Z,969.57
2022-09-02T09:56:17.080Z,969.60
2022-09-02T09:57:23.972Z,969.56
2022-09-02T09:58:17.164Z,969.60
2022-09-02T09:59:19.031Z,969.62
2022-09-02T10:00:17.342Z,969.58
2022-09-02T10:01:17.428Z,969.58
2022-09-02T10:15:31.278Z,969.60
2022-09-02T10:16:31.363Z,969.58
2022-09-02T10:17:31.723Z,969.58
2022-09-02T10:18:31.257Z,969.54
2022-09-02T10:19:31.286Z,969.51
2022-09-02T10:20:31.340Z,969.51
2022-09-02T10:21:31.424Z,969.52
2022-09-02T10:22:37.944Z,969.50
2022-09-02T10:23:31.501Z,969.49
2022-09-02T10:24:32.482Z,969.45
2022-09-02T10:25:31.638Z,969.48
2022-09-02T10:26:31.666Z,969.45
2022-09-02T10:27:31.715Z,969.44
2022-09-02T10:28:31.766Z,969.40
2022-09-02T10:29:31.822Z,969.41
2022-09-02T10:30:31.899Z,969.40
2022-09-02T10:31:31.974Z,969.42
2022-09-02T10:32:31.996Z,969.45
2022-09-02T10:33:32.056Z,969.43
2022-09-02T10:34:32.125Z,969.45
2022-09-02T10:35:32.182Z,969.43
2022-09-02T10:41:34.129Z,969.34
2022-09-02T10:42:34.155Z,969.36
2022-09-02T10:43:34.158Z,969.36
2022-09-02T10:44:34.187Z,969.36
2022-09-02T10:45:34.435Z,969.35
2022-09-02T10:46:34.363Z,969.33
2022-09-02T10:47:34.419Z,969.28
2022-09-02T10:48:41.391Z,969.33
2022-09-02T10:49:34.930Z,969.27
2022-09-02T10:50:48.109Z,969.24
2022-09-02T10:54:32.400Z,969.25
2022-09-02T10:55:32.422Z,969.24
2022-09-02T10:56:43.696Z,969.23
2022-09-02T10:57:32.536Z,969.27
2022-09-02T10:58:32.591Z,969.22
2022-09-02T10:59:32.669Z,969.20
2022-09-02T11:20:46.858Z,969.02
2022-09-02T11:21:46.923Z,969.00
2022-09-02T11:22:46.945Z,968.99
2022-09-02T11:23:46.997Z,969.01
2022-09-02T11:24:47.093Z,968.98
2022-09-02T11:25:47.146Z,969.01
2022-09-02T11:26:47.192Z,969.01
2022-09-02T11:27:51.776Z,969.04
2022-09-02T11:28:47.360Z,969.01
2022-09-02T11:29:47.381Z,968.95
2022-09-02T11:30:47.444Z,968.95
2022-09-02T11:31:47.445Z,968.95
2022-09-02T11:32:47.528Z,969.00
2022-09-02T11:33:47.560Z,968.97
2022-09-02T11:34:47.621Z,968.92
2022-09-02T11:35:47.676Z,968.92
2022-09-02T11:36:47.732Z,968.91
2022-09-02T11:37:50.751Z,968.89
2022-09-02T11:38:52.897Z,968.94
2022-09-02T11:57:49.603Z,969.08
2022-09-02T11:58:49.656Z,969.03
2022-09-02T11:59:49.692Z,969.06
2022-09-02T12:00:49.840Z,969.05
2022-09-02T12:01:49.810Z,969.07
2022-09-02T12:02:49.874Z,969.03
2022-09-02T12:04:16.209Z,969.00
2022-09-02T12:09:56.852Z,969.09
2022-09-02T12:10:56.762Z,969.05
2022-09-02T12:11:56.851Z,969.07
2022-09-02T12:12:56.882Z,969.06
2022-09-02T12:13:56.965Z,969.11
2022-09-02T12:14:57.003Z,969.08
2022-09-02T12:15:57.104Z,969.09
2022-09-02T12:16:57.127Z,969.07
2022-09-02T12:17:57.206Z,969.07
2022-09-02T12:18:57.236Z,969.10
2022-09-02T12:19:57.294Z,969.04
2022-09-02T12:20:57.354Z,969.11
2022-09-02T12:21:57.416Z,969.07
2022-09-02T12:22:57.514Z,969.05
2022-09-02T12:23:57.746Z,969.07
2022-09-02T12:24:57.599Z,969.02
2022-09-02T12:25:58.181Z,969.05
2022-09-02T12:26:57.718Z,969.03
2022-09-02T12:27:57.907Z,969.04
2022-09-02T12:28:57.837Z,969.03
2022-09-02T12:29:57.901Z,969.03
2022-09-02T12:30:58.011Z,968.97
2022-09-02T12:31:58.026Z,968.97
2022-09-02T12:32:58.104Z,968.96
2022-09-02T12:33:58.171Z,968.93
2022-09-02T12:34:58.270Z,968.92
2022-09-02T12:36:13.181Z,968.88
2022-09-02T12:36:58.324Z,968.88
2022-09-02T12:37:58.381Z,968.86
2022-09-02T12:38:58.473Z,968.87
2022-09-02T12:39:58.507Z,968.82
2022-09-02T12:40:58.652Z,968.81
2022-09-02T12:41:58.624Z,968.84
2022-09-02T12:42:58.899Z,968.82
2022-09-02T12:43:58.775Z,968.82
2022-09-02T12:44:58.832Z,968.80
2022-09-02T12:45:58.880Z,968.81
2022-09-02T12:46:59.003Z,968.82
2022-09-02T12:47:58.992Z,968.80
2022-09-02T12:48:59.051Z,968.81
2022-09-02T12:49:59.140Z,968.81
2022-09-02T12:51:02.201Z,968.76
2022-09-02T12:51:59.237Z,968.74
2022-09-02T12:52:59.321Z,968.68
2022-09-02T12:53:59.359Z,968.67
2022-09-02T12:54:59.425Z,968.65
2022-09-02T12:55:59.505Z,968.65
2022-09-02T12:56:59.570Z,968.61
2022-09-02T12:57:59.619Z,968.60
2022-09-02T12:59:02.687Z,968.60
2022-09-02T12:59:59.727Z,968.61
2022-09-02T13:00:59.817Z,968.62
2022-09-02T13:01:59.876Z,968.59
2022-09-02T13:02:59.911Z,968.59
2022-09-02T13:03:59.973Z,968.58
2022-09-02T13:05:00.033Z,968.60
2022-09-02T13:06:00.107Z,968.57
2022-09-02T13:07:00.186Z,968.55
2022-09-02T13:08:02.348Z,968.54
2022-09-02T13:09:00.278Z,968.53
2022-09-02T13:10:00.336Z,968.50
2022-09-02T13:11:00.404Z,968.44
2022-09-02T13:12:00.488Z,968.46
2022-09-02T13:13:00.527Z,968.45
2022-09-02T13:14:00.609Z,968.46
2022-09-02T13:15:00.655Z,968.43
2022-09-02T13:16:00.759Z,968.41
2022-09-02T13:17:09.003Z,968.36
2022-09-02T13:18:00.866Z,968.31
2022-09-02T13:19:00.894Z,968.36
2022-09-02T13:20:00.955Z,968.34
2022-09-02T13:21:01.035Z,968.30
2022-09-02T13:22:01.082Z,968.33
2022-09-02T13:23:01.166Z,968.33
2022-09-02T13:24:01.716Z,968.31
2022-09-02T13:25:01.298Z,968.29
2022-09-02T13:26:01.328Z,968.28
2022-09-02T13:27:01.397Z,968.31
2022-09-02T13:28:01.479Z,968.26
2022-09-02T13:29:01.517Z,968.26
2022-09-02T13:30:01.583Z,968.22
2022-09-02T13:31:01.676Z,968.22
2022-09-02T13:32:01.705Z,968.21
2022-09-02T13:33:01.768Z,968.19
2022-09-02T13:34:02.901Z,968.17
2022-09-02T13:35:01.910Z,968.19
2022-09-02T13:36:01.956Z,968.20
2022-09-02T13:37:02.039Z,968.21
2022-09-02T13:38:02.163Z,968.19
2022-09-02T13:39:02.205Z,968.18
2022-09-02T13:40:02.209Z,968.13
2022-09-02T13:41:04.260Z,968.15
2022-09-02T13:42:02.324Z,968.15
2022-09-02T13:43:02.393Z,968.13
2022-09-02T13:44:02.452Z,968.15
2022-09-02T13:45:02.552Z,968.11
2022-09-02T13:46:02.588Z,968.09
2022-09-02T13:47:02.651Z,968.09
2022-09-02T13:48:18.309Z,968.05
2022-09-02T13:49:02.766Z,968.03
2022-09-02T13:50:02.924Z,968.08
2022-09-02T13:51:02.890Z,968.06
2022-09-02T13:52:02.983Z,968.05
2022-09-02T13:54:22.534Z,968.05
2022-09-02T13:55:03.136Z,968.06
2022-09-02T13:56:03.198Z,968.04
2022-09-02T13:57:03.286Z,968.03
2022-09-02T13:58:03.323Z,968.05
2022-09-02T13:59:03.816Z,968.01
2022-09-02T14:00:03.543Z,968.04
2022-09-02T14:01:03.583Z,968.05
2022-09-02T14:02:03.709Z,968.03
2022-09-02T14:03:03.719Z,968.06
2022-09-02T14:05:03.801Z,968.02
2022-09-02T14:06:03.824Z,968.01
2022-09-02T14:07:03.885Z,968.02
2022-09-02T14:08:03.951Z,968.02
2022-09-02T14:09:04.008Z,968.00
2022-09-02T14:10:04.102Z,968.00
2022-09-02T14:11:07.823Z,968.00
2022-09-02T14:12:04.226Z,967.98
2022-09-02T14:13:04.279Z,968.04
2022-09-02T14:14:04.325Z,968.07
2022-09-02T14:15:04.396Z,968.16
2022-09-02T14:16:04.548Z,968.22
2022-09-02T14:17:04.552Z,968.25
2022-09-02T14:18:04.583Z,968.30
2022-09-02T14:19:19.296Z,968.33
2022-09-02T14:20:04.807Z,968.38
2022-09-02T14:21:04.768Z,968.41
2022-09-02T14:22:04.873Z,968.36
2022-09-02T14:23:04.890Z,968.21
2022-09-02T14:24:04.961Z,968.18
2022-09-02T14:25:05.019Z,968.16
2022-09-02T14:26:05.082Z,968.10
2022-09-02T14:27:05.222Z,968.11
2022-09-02T14:28:05.208Z,968.17
2022-09-02T14:29:05.302Z,968.08
2022-09-02T14:30:05.333Z,968.01
2022-09-02T14:31:05.469Z,968.03
2022-09-02T14:32:05.458Z,967.95
2022-09-02T14:33:05.522Z,967.90
2022-09-02T14:34:05.605Z,967.94
2022-09-02T14:35:05.675Z,967.87
2022-09-02T14:36:05.715Z,967.85
2022-09-02T14:37:05.772Z,967.84
2022-09-02T14:38:05.837Z,967.89
2022-09-02T14:39:05.901Z,967.78
2022-09-02T14:40:05.986Z,967.84
2022-09-02T14:41:06.028Z,967.89
2022-09-02T14:42:06.086Z,967.85
2022-09-02T14:43:06.154Z,967.87
2022-09-02T14:44:06.210Z,967.88
2022-09-02T14:45:06.301Z,967.84
2022-09-02T14:46:06.365Z,968.02
2022-09-02T14:47:06.421Z,967.95
2022-09-02T14:48:06.465Z,967.94
2022-09-02T14:49:06.521Z,967.88
2022-09-02T14:50:06.595Z,967.83
2022-09-02T14:51:06.651Z,967.87
2022-09-02T14:52:06.744Z,967.80
2022-09-02T14:53:08.322Z,967.85
2022-09-02T14:54:06.839Z,967.89
2022-09-02T14:55:06.905Z,968.25
2022-09-02T14:56:06.964Z,968.06
2022-09-02T14:57:07.051Z,967.90
2022-09-02T14:58:07.087Z,967.89
2022-09-02T14:59:07.183Z,967.70
2022-09-02T15:00:07.213Z,967.54
2022-09-02T15:01:07.309Z,967.48
2022-09-02T15:02:07.336Z,967.41
2022-09-02T15:03:07.398Z,967.39
2022-09-02T15:04:07.527Z,967.36
2022-09-02T15:05:07.547Z,967.36
2022-09-02T15:06:28.613Z,967.37
2022-09-02T15:07:07.639Z,967.38
2022-09-02T15:08:07.751Z,967.34
2022-09-02T15:09:07.852Z,967.37
2022-09-02T15:10:07.837Z,967.34
2022-09-02T15:11:07.889Z,967.37
2022-09-02T15:12:07.945Z,967.41
2022-09-02T15:13:08.025Z,967.40
2022-09-02T15:14:08.062Z,967.43
2022-09-02T15:15:08.122Z,967.45
2022-09-02T15:16:08.276Z,967.41
2022-09-02T15:17:08.297Z,967.41
2022-09-02T15:18:08.958Z,967.47
2022-09-02T15:19:08.364Z,967.49
2022-09-02T15:20:08.429Z,967.46
2022-09-02T15:21:08.497Z,967.48
2022-09-02T15:22:08.556Z,967.43
2022-09-02T15:23:08.592Z,967.32
2022-09-02T15:24:08.693Z,967.29
2022-09-02T15:25:08.745Z,967.27
2022-09-02T15:26:08.779Z,967.23
2022-09-02T15:27:08.827Z,967.25
2022-09-02T15:28:08.910Z,967.25
2022-09-02T15:29:08.983Z,967.27
2022-09-02T15:30:15.862Z,967.30
2022-09-02T15:31:09.126Z,967.37
2022-09-02T15:32:09.124Z,967.39
2022-09-02T15:33:09.178Z,967.45
2022-09-02T15:34:09.274Z,967.39
2022-09-02T15:35:09.307Z,967.58
2022-09-02T15:36:09.355Z,967.64
2022-09-02T15:37:12.797Z,967.70
2022-09-02T15:38:09.467Z,967.76
2022-09-02T15:39:09.560Z,967.86
2022-09-02T15:40:09.591Z,967.79
2022-09-02T15:41:09.658Z,967.56
2022-09-02T15:42:09.700Z,967.60
2022-09-02T15:43:09.764Z,967.71
2022-09-02T15:44:09.857Z,967.62
2022-09-02T15:45:09.878Z,967.59
2022-09-02T15:46:09.992Z,967.49
2022-09-02T15:47:10.037Z,967.49
2022-09-02T15:48:10.076Z,967.53
2022-09-02T15:49:10.125Z,967.52
2022-09-02T15:50:10.175Z,967.56
2022-09-02T15:51:10.238Z,967.46
2022-09-02T15:52:10.351Z,967.47
2022-09-02T15:53:10.349Z,967.47
2022-09-02T15:54:10.414Z,967.46
2022-09-02T15:55:10.465Z,967.40
2022-09-02T15:56:10.531Z,967.36
2022-09-02T15:57:10.617Z,967.34
2022-09-02T15:58:10.636Z,967.33
2022-09-02T15:59:10.702Z,967.30
2022-09-02T16:00:10.945Z,967.29
2022-09-02T16:01:10.847Z,967.28
2022-09-02T16:02:10.933Z,967.25
2022-09-02T16:03:10.927Z,967.29
2022-09-02T16:04:10.991Z,967.34
2022-09-02T16:05:11.032Z,967.30
2022-09-02T16:06:11.089Z,967.34
2022-09-02T16:07:15.329Z,967.35
2022-09-02T16:08:11.217Z,967.38
2022-09-02T16:09:11.260Z,967.33
2022-09-02T16:10:11.354Z,967.32
2022-09-02T16:11:11.385Z,967.33
2022-09-02T16:12:11.428Z,967.30
2022-09-02T16:13:11.482Z,967.27
2022-09-02T16:14:11.546Z,967.26
2022-09-02T16:15:11.918Z,967.28
2022-09-02T16:16:11.664Z,967.25
2022-09-02T16:17:11.708Z,967.27
2022-09-02T16:18:11.761Z,967.22
2022-09-02T16:19:11.817Z,967.21
2022-09-02T16:20:12.866Z,967.21
2022-09-02T16:21:11.971Z,967.21
2022-09-02T16:22:11.991Z,967.19
2022-09-02T16:23:12.055Z,967.19
2022-09-02T16:24:12.129Z,967.18
2022-09-02T16:25:12.139Z,967.20
2022-09-02T16:26:12.233Z,967.18
2022-09-02T16:27:12.253Z,967.16
2022-09-02T16:28:12.363Z,967.19
2022-09-02T16:29:12.371Z,967.17
2022-09-02T16:30:12.416Z,967.16
2022-09-02T16:31:12.504Z,967.14
2022-09-02T16:32:27.523Z,967.19
2022-09-02T16:33:12.580Z,967.15
2022-09-02T16:34:12.640Z,967.13
2022-09-02T16:35:14.429Z,967.16
2022-09-02T16:36:12.756Z,967.19
2022-09-02T16:37:12.788Z,967.19
2022-09-02T16:38:13.371Z,967.23
2022-09-02T16:39:12.961Z,967.22
2022-09-02T16:40:13.654Z,967.27
2022-09-02T16:41:13.014Z,967.23
2022-09-02T16:42:13.085Z,967.23
2022-09-02T16:43:13.417Z,967.26
2022-09-02T16:44:13.191Z,967.27
2022-09-02T16:45:13.284Z,967.27
2022-09-02T16:46:13.310Z,967.24
2022-09-02T16:47:14.006Z,967.23
2022-09-02T16:48:13.394Z,967.26
2022-09-02T16:49:13.930Z,967.24
2022-09-02T16:50:13.491Z,967.21
2022-09-02T16:51:13.544Z,967.20
2022-09-02T16:52:13.603Z,967.18
2022-09-02T16:53:14.480Z,967.16
2022-09-02T16:54:17.684Z,967.16
2022-09-02T16:55:14.878Z,967.20
2022-09-02T16:56:13.842Z,967.18
2022-09-02T16:57:15.412Z,967.21
2022-09-02T16:58:14.992Z,967.23
2022-09-02T16:59:16.882Z,967.28
2022-09-02T17:00:14.161Z,967.28
2022-09-02T17:01:15.991Z,967.32
2022-09-02T17:02:14.956Z,967.35
2022-09-02T17:03:14.965Z,967.33
2022-09-02T17:04:14.246Z,967.32
2022-09-02T17:05:22.909Z,967.35
2022-09-02T17:06:14.354Z,967.38
2022-09-02T17:07:15.501Z,967.39
2022-09-02T17:08:14.470Z,967.37
2022-09-02T17:09:14.531Z,967.42
2022-09-02T17:10:15.393Z,967.42
2022-09-02T17:11:14.667Z,967.42
2022-09-02T17:12:14.737Z,967.39
2022-09-02T17:13:17.965Z,967.36
2022-09-02T17:14:16.306Z,967.40
2022-09-02T17:15:14.837Z,967.44
2022-09-02T17:16:15.499Z,967.40
2022-09-02T17:17:14.998Z,967.42
2022-09-02T17:18:15.080Z,967.46
2022-09-02T17:19:15.501Z,967.45
2022-09-02T17:20:15.123Z,967.45
2022-09-02T17:21:16.236Z,967.45
2022-09-02T17:22:15.277Z,967.45
2022-09-02T17:23:15.354Z,967.41
2022-09-02T17:24:15.906Z,967.47
2022-09-02T17:25:15.988Z,967.45
2022-09-02T17:26:15.432Z,967.44
2022-09-02T17:27:16.399Z,967.45
2022-09-02T17:28:16.403Z,967.51
2022-09-02T17:29:37.885Z,967.49
2022-09-02T17:30:18.418Z,967.48
2022-09-02T17:31:15.749Z,967.48
2022-09-02T17:32:16.397Z,967.51
2022-09-02T17:33:17.430Z,967.52
2022-09-02T17:34:15.980Z,967.52
2022-09-02T17:35:16.456Z,967.52
2022-09-02T17:36:18.958Z,967.53
2022-09-02T17:37:16.930Z,967.53
2022-09-02T17:38:16.909Z,967.55
2022-09-02T17:39:18.014Z,967.56
2022-09-02T17:40:16.937Z,967.54
2022-09-02T17:41:16.236Z,967.59
2022-09-02T17:42:16.356Z,967.57
2022-09-02T17:43:16.900Z,967.55
2022-09-02T17:44:16.921Z,967.55
2022-09-02T17:45:17.420Z,967.51
2022-09-02T17:46:16.529Z,967.51
2022-09-02T17:47:16.950Z,967.49
2022-09-02T17:48:35.684Z,967.49
